sensor_id;sensor_type;location;lat;lon;timestamp;P1;durP1;ratioP1;P2;durP2;ratioP2
7410;SDS011;3747;48.628;9.058;2023-04-24T00:01:19;1.27;;;0.57;;
7410;SDS011;3747;48.628;9.058;2023-04-24T00:03:45;1.03;;;0.70;;
7410;SDS011;3747;48.628;9.058;2023-04-24T00:06:12;1.03;;;0.90;;
7410;SDS011;3747;48.628;9.058;2023-04-24T00:08:39;2.03;;;0.90;;
7410;SDS011;3747;48.628;9.058;2023-04-24T00:11:05;2.53;;;0.90;;
7410;SDS011;3747;48.628;9.058;2023-04-24T00:13:33;0.70;;;0.70;;
7410;SDS011;3747;48.628;9.058;2023-04-24T00:16:00;0.77;;;0.77;;
7410;SDS011;3747;48.628;9.058;2023-04-24T00:18:27;0.80;;;0.70;;
7410;SDS011;3747;48.628;9.058;2023-04-24T00:20:54;1.63;;;0.67;;
7410;SDS011;3747;48.628;9.058;2023-04-24T00:23:20;0.97;;;0.80;;
7410;SDS011;3747;48.628;9.058;2023-04-24T00:25:47;2.20;;;0.80;;
7410;SDS011;3747;48.628;9.058;2023-04-24T00:28:14;0.83;;;0.80;;
7410;SDS011;3747;48.628;9.058;2023-04-24T00:30:42;1.63;;;0.60;;
7410;SDS011;3747;48.628;9.058;2023-04-24T00:33:08;0.77;;;0.77;;
7410;SDS011;3747;48.628;9.058;2023-04-24T00:35:35;0.60;;;0.50;;
7410;SDS011;3747;48.628;9.058;2023-04-24T00:38:02;2.03;;;1.07;;
7410;SDS011;3747;48.628;9.058;2023-04-24T00:40:28;0.53;;;0.53;;
7410;SDS011;3747;48.628;9.058;2023-04-24T00:42:55;1.13;;;1.00;;
7410;SDS011;3747;48.628;9.058;2023-04-24T00:45:22;1.60;;;0.77;;
7410;SDS011;3747;48.628;9.058;2023-04-24T00:47:50;1.50;;;0.70;;
7410;SDS011;3747;48.628;9.058;2023-04-24T00:50:20;1.30;;;0.53;;
7410;SDS011;3747;48.628;9.058;2023-04-24T00:52:47;1.03;;;0.70;;
7410;SDS011;3747;48.628;9.058;2023-04-24T00:55:14;0.70;;;0.50;;
7410;SDS011;3747;48.628;9.058;2023-04-24T00:57:41;1.40;;;0.50;;
7410;SDS011;3747;48.628;9.058;2023-04-24T01:00:09;1.27;;;0.60;;
7410;SDS011;3747;48.628;9.058;2023-04-24T01:02:37;0.83;;;0.50;;
7410;SDS011;3747;48.628;9.058;2023-04-24T01:05:10;0.47;;;0.47;;
7410;SDS011;3747;48.628;9.058;2023-04-24T01:07:38;2.43;;;0.63;;
7410;SDS011;3747;48.628;9.058;2023-04-24T01:10:09;2.43;;;0.63;;
7410;SDS011;3747;48.628;9.058;2023-04-24T01:12:36;1.70;;;0.60;;
7410;SDS011;3747;48.628;9.058;2023-04-24T01:15:03;1.67;;;0.60;;
7410;SDS011;3747;48.628;9.058;2023-04-24T01:17:31;2.57;;;0.83;;
7410;SDS011;3747;48.628;9.058;2023-04-24T01:19:58;0.80;;;0.60;;
7410;SDS011;3747;48.628;9.058;2023-04-24T01:22:27;1.73;;;0.60;;
7410;SDS011;3747;48.628;9.058;2023-04-24T01:24:53;1.80;;;0.77;;
7410;SDS011;3747;48.628;9.058;2023-04-24T01:27:20;2.17;;;0.57;;
7410;SDS011;3747;48.628;9.058;2023-04-24T01:29:47;1.33;;;0.60;;
7410;SDS011;3747;48.628;9.058;2023-04-24T01:32:14;0.47;;;0.47;;
7410;SDS011;3747;48.628;9.058;2023-04-24T01:34:41;0.57;;;0.57;;
7410;SDS011;3747;48.628;9.058;2023-04-24T01:37:08;1.27;;;0.60;;
7410;SDS011;3747;48.628;9.058;2023-04-24T01:39:37;1.23;;;0.60;;
7410;SDS011;3747;48.628;9.058;2023-04-24T01:42:04;0.87;;;0.57;;
7410;SDS011;3747;48.628;9.058;2023-04-24T01:44:31;1.73;;;0.60;;
7410;SDS011;3747;48.628;9.058;2023-04-24T01:47:00;0.90;;;0.50;;
7410;SDS011;3747;48.628;9.058;2023-04-24T01:49:27;0.83;;;0.60;;
7410;SDS011;3747;48.628;9.058;2023-04-24T01:51:54;2.20;;;0.80;;
7410;SDS011;3747;48.628;9.058;2023-04-24T01:54:20;1.63;;;0.63;;
7410;SDS011;3747;48.628;9.058;2023-04-24T01:56:48;3.50;;;0.60;;
7410;SDS011;3747;48.628;9.058;2023-04-24T01:59:15;0.40;;;0.40;;
7410;SDS011;3747;48.628;9.058;2023-04-24T02:01:43;0.93;;;0.50;;
7410;SDS011;3747;48.628;9.058;2023-04-24T02:04:10;2.73;;;0.57;;
7410;SDS011;3747;48.628;9.058;2023-04-24T02:06:36;1.27;;;0.40;;
7410;SDS011;3747;48.628;9.058;2023-04-24T02:09:03;0.50;;;0.43;;
7410;SDS011;3747;48.628;9.058;2023-04-24T02:11:30;0.50;;;0.50;;
7410;SDS011;3747;48.628;9.058;2023-04-24T02:13:58;0.70;;;0.57;;
7410;SDS011;3747;48.628;9.058;2023-04-24T02:16:24;0.67;;;0.60;;
7410;SDS011;3747;48.628;9.058;2023-04-24T02:18:51;1.23;;;0.83;;
7410;SDS011;3747;48.628;9.058;2023-04-24T02:21:18;1.10;;;0.80;;
7410;SDS011;3747;48.628;9.058;2023-04-24T02:23:44;0.60;;;0.60;;
7410;SDS011;3747;48.628;9.058;2023-04-24T02:26:11;0.70;;;0.70;;
7410;SDS011;3747;48.628;9.058;2023-04-24T02:28:38;2.20;;;0.60;;
7410;SDS011;3747;48.628;9.058;2023-04-24T02:31:06;2.40;;;0.53;;
7410;SDS011;3747;48.628;9.058;2023-04-24T02:33:33;0.80;;;0.80;;
7410;SDS011;3747;48.628;9.058;2023-04-24T02:36:00;0.67;;;0.60;;
7410;SDS011;3747;48.628;9.058;2023-04-24T02:38:27;0.83;;;0.70;;
7410;SDS011;3747;48.628;9.058;2023-04-24T02:40:54;0.73;;;0.50;;
7410;SDS011;3747;48.628;9.058;2023-04-24T02:43:21;1.27;;;0.70;;
7410;SDS011;3747;48.628;9.058;2023-04-24T02:45:48;0.47;;;0.40;;
7410;SDS011;3747;48.628;9.058;2023-04-24T02:48:16;0.53;;;0.53;;
7410;SDS011;3747;48.628;9.058;2023-04-24T02:50:43;1.10;;;0.67;;
7410;SDS011;3747;48.628;9.058;2023-04-24T02:53:10;0.90;;;0.60;;
7410;SDS011;3747;48.628;9.058;2023-04-24T02:55:37;1.17;;;0.90;;
7410;SDS011;3747;48.628;9.058;2023-04-24T02:58:03;0.70;;;0.57;;
7410;SDS011;3747;48.628;9.058;2023-04-24T03:00:30;2.03;;;0.70;;
7410;SDS011;3747;48.628;9.058;2023-04-24T03:02:58;0.50;;;0.50;;
7410;SDS011;3747;48.628;9.058;2023-04-24T03:05:26;1.40;;;0.60;;
7410;SDS011;3747;48.628;9.058;2023-04-24T03:07:53;0.70;;;0.70;;
7410;SDS011;3747;48.628;9.058;2023-04-24T03:10:20;0.70;;;0.70;;
7410;SDS011;3747;48.628;9.058;2023-04-24T03:12:47;2.17;;;0.80;;
7410;SDS011;3747;48.628;9.058;2023-04-24T03:15:14;0.60;;;0.60;;
7410;SDS011;3747;48.628;9.058;2023-04-24T03:17:41;1.07;;;0.70;;
7410;SDS011;3747;48.628;9.058;2023-04-24T03:20:08;0.60;;;0.60;;
7410;SDS011;3747;48.628;9.058;2023-04-24T03:22:36;2.73;;;0.50;;
7410;SDS011;3747;48.628;9.058;2023-04-24T03:25:03;1.60;;;0.97;;
7410;SDS011;3747;48.628;9.058;2023-04-24T03:27:33;1.87;;;0.67;;
7410;SDS011;3747;48.628;9.058;2023-04-24T03:29:59;0.77;;;0.70;;
7410;SDS011;3747;48.628;9.058;2023-04-24T03:32:27;1.70;;;0.70;;
7410;SDS011;3747;48.628;9.058;2023-04-24T03:34:53;1.03;;;0.70;;
7410;SDS011;3747;48.628;9.058;2023-04-24T03:37:20;0.60;;;0.60;;
7410;SDS011;3747;48.628;9.058;2023-04-24T03:39:48;1.43;;;0.90;;
7410;SDS011;3747;48.628;9.058;2023-04-24T03:42:15;1.73;;;0.80;;
7410;SDS011;3747;48.628;9.058;2023-04-24T03:44:42;3.73;;;1.67;;
7410;SDS011;3747;48.628;9.058;2023-04-24T03:47:08;2.57;;;1.00;;
7410;SDS011;3747;48.628;9.058;2023-04-24T03:49:35;0.90;;;0.73;;
7410;SDS011;3747;48.628;9.058;2023-04-24T03:52:01;1.33;;;0.90;;
7410;SDS011;3747;48.628;9.058;2023-04-24T03:54:28;1.20;;;0.90;;
7410;SDS011;3747;48.628;9.058;2023-04-24T03:56:56;2.17;;;0.60;;
7410;SDS011;3747;48.628;9.058;2023-04-24T03:59:23;3.47;;;1.00;;
7410;SDS011;3747;48.628;9.058;2023-04-24T04:01:50;2.27;;;0.67;;
7410;SDS011;3747;48.628;9.058;2023-04-24T04:04:16;0.70;;;0.70;;
7410;SDS011;3747;48.628;9.058;2023-04-24T04:06:43;1.00;;;0.83;;
7410;SDS011;3747;48.628;9.058;2023-04-24T04:09:11;3.27;;;1.03;;
7410;SDS011;3747;48.628;9.058;2023-04-24T04:11:38;0.70;;;0.70;;
7410;SDS011;3747;48.628;9.058;2023-04-24T04:14:06;0.83;;;0.60;;
7410;SDS011;3747;48.628;9.058;2023-04-24T04:16:33;1.80;;;0.60;;
7410;SDS011;3747;48.628;9.058;2023-04-24T04:19:01;0.83;;;0.43;;
7410;SDS011;3747;48.628;9.058;2023-04-24T04:21:28;0.70;;;0.70;;
7410;SDS011;3747;48.628;9.058;2023-04-24T04:23:56;1.33;;;1.20;;
7410;SDS011;3747;48.628;9.058;2023-04-24T04:26:22;0.77;;;0.77;;
7410;SDS011;3747;48.628;9.058;2023-04-24T04:28:50;1.33;;;0.60;;
7410;SDS011;3747;48.628;9.058;2023-04-24T04:31:18;0.83;;;0.70;;
7410;SDS011;3747;48.628;9.058;2023-04-24T04:33:45;0.67;;;0.60;;
7410;SDS011;3747;48.628;9.058;2023-04-24T04:36:12;2.60;;;0.83;;
7410;SDS011;3747;48.628;9.058;2023-04-24T04:38:39;0.60;;;0.60;;
7410;SDS011;3747;48.628;9.058;2023-04-24T04:41:07;2.70;;;0.63;;
7410;SDS011;3747;48.628;9.058;2023-04-24T04:43:34;1.70;;;0.83;;
7410;SDS011;3747;48.628;9.058;2023-04-24T04:46:01;2.20;;;1.43;;
7410;SDS011;3747;48.628;9.058;2023-04-24T04:48:29;1.53;;;1.00;;
7410;SDS011;3747;48.628;9.058;2023-04-24T04:50:56;1.10;;;1.10;;
7410;SDS011;3747;48.628;9.058;2023-04-24T04:53:23;1.03;;;1.03;;
7410;SDS011;3747;48.628;9.058;2023-04-24T04:55:50;1.17;;;1.10;;
7410;SDS011;3747;48.628;9.058;2023-04-24T04:58:17;1.57;;;1.07;;
7410;SDS011;3747;48.628;9.058;2023-04-24T05:00:44;2.77;;;1.30;;
7410;SDS011;3747;48.628;9.058;2023-04-24T05:03:11;1.33;;;1.10;;
7410;SDS011;3747;48.628;9.058;2023-04-24T05:05:39;3.73;;;3.30;;
7410;SDS011;3747;48.628;9.058;2023-04-24T05:08:06;3.23;;;1.30;;
7410;SDS011;3747;48.628;9.058;2023-04-24T05:10:33;1.57;;;1.40;;
7410;SDS011;3747;48.628;9.058;2023-04-24T05:12:59;1.33;;;1.23;;
7410;SDS011;3747;48.628;9.058;2023-04-24T05:15:26;2.80;;;1.30;;
7410;SDS011;3747;48.628;9.058;2023-04-24T05:17:53;2.23;;;1.07;;
7410;SDS011;3747;48.628;9.058;2023-04-24T05:20:19;1.43;;;1.20;;
7410;SDS011;3747;48.628;9.058;2023-04-24T05:22:48;1.47;;;1.37;;
7410;SDS011;3747;48.628;9.058;2023-04-24T05:25:14;2.00;;;1.90;;
7410;SDS011;3747;48.628;9.058;2023-04-24T05:27:41;1.30;;;1.20;;
7410;SDS011;3747;48.628;9.058;2023-04-24T05:30:08;2.03;;;1.63;;
7410;SDS011;3747;48.628;9.058;2023-04-24T05:32:35;1.30;;;1.30;;
7410;SDS011;3747;48.628;9.058;2023-04-24T05:35:02;1.93;;;1.67;;
7410;SDS011;3747;48.628;9.058;2023-04-24T05:37:29;2.50;;;2.00;;
7410;SDS011;3747;48.628;9.058;2023-04-24T05:39:57;1.87;;;1.77;;
7410;SDS011;3747;48.628;9.058;2023-04-24T05:42:24;1.77;;;1.60;;
7410;SDS011;3747;48.628;9.058;2023-04-24T05:44:50;2.70;;;1.50;;
7410;SDS011;3747;48.628;9.058;2023-04-24T05:47:19;2.00;;;1.40;;
7410;SDS011;3747;48.628;9.058;2023-04-24T05:49:46;2.30;;;1.20;;
7410;SDS011;3747;48.628;9.058;2023-04-24T05:52:13;2.67;;;1.80;;
7410;SDS011;3747;48.628;9.058;2023-04-24T05:54:40;1.83;;;1.73;;
7410;SDS011;3747;48.628;9.058;2023-04-24T05:57:08;2.83;;;1.90;;
7410;SDS011;3747;48.628;9.058;2023-04-24T05:59:36;2.10;;;1.70;;
7410;SDS011;3747;48.628;9.058;2023-04-24T06:02:03;2.00;;;1.80;;
7410;SDS011;3747;48.628;9.058;2023-04-24T06:04:30;1.90;;;1.80;;
7410;SDS011;3747;48.628;9.058;2023-04-24T06:06:58;2.30;;;2.10;;
7410;SDS011;3747;48.628;9.058;2023-04-24T06:09:25;1.80;;;1.70;;
7410;SDS011;3747;48.628;9.058;2023-04-24T06:11:52;1.77;;;1.67;;
7410;SDS011;3747;48.628;9.058;2023-04-24T06:14:20;1.70;;;1.60;;
7410;SDS011;3747;48.628;9.058;2023-04-24T06:16:46;2.47;;;1.60;;
7410;SDS011;3747;48.628;9.058;2023-04-24T06:19:13;1.90;;;1.73;;
7410;SDS011;3747;48.628;9.058;2023-04-24T06:21:40;2.03;;;1.87;;
7410;SDS011;3747;48.628;9.058;2023-04-24T06:24:06;6.00;;;3.53;;
7410;SDS011;3747;48.628;9.058;2023-04-24T06:26:33;1.23;;;1.13;;
7410;SDS011;3747;48.628;9.058;2023-04-24T06:29:00;0.90;;;0.90;;
7410;SDS011;3747;48.628;9.058;2023-04-24T06:31:28;0.80;;;0.80;;
7410;SDS011;3747;48.628;9.058;2023-04-24T06:33:54;0.70;;;0.70;;
7410;SDS011;3747;48.628;9.058;2023-04-24T06:36:21;2.53;;;1.20;;
7410;SDS011;3747;48.628;9.058;2023-04-24T06:38:48;1.43;;;0.87;;
7410;SDS011;3747;48.628;9.058;2023-04-24T06:41:15;0.70;;;0.70;;
7410;SDS011;3747;48.628;9.058;2023-04-24T06:43:41;2.27;;;1.00;;
7410;SDS011;3747;48.628;9.058;2023-04-24T06:46:08;1.60;;;1.20;;
7410;SDS011;3747;48.628;9.058;2023-04-24T06:48:36;2.27;;;1.00;;
7410;SDS011;3747;48.628;9.058;2023-04-24T06:51:05;1.50;;;1.10;;
7410;SDS011;3747;48.628;9.058;2023-04-24T06:53:31;1.10;;;1.00;;
7410;SDS011;3747;48.628;9.058;2023-04-24T06:55:58;1.40;;;1.30;;
7410;SDS011;3747;48.628;9.058;2023-04-24T06:58:25;3.37;;;1.57;;
7410;SDS011;3747;48.628;9.058;2023-04-24T07:00:52;2.43;;;1.30;;
7410;SDS011;3747;48.628;9.058;2023-04-24T07:03:19;1.40;;;1.30;;
7410;SDS011;3747;48.628;9.058;2023-04-24T07:05:47;1.60;;;1.50;;
7410;SDS011;3747;48.628;9.058;2023-04-24T07:08:14;2.63;;;1.80;;
7410;SDS011;3747;48.628;9.058;2023-04-24T07:10:42;1.63;;;1.33;;
7410;SDS011;3747;48.628;9.058;2023-04-24T07:13:09;1.40;;;1.30;;
7410;SDS011;3747;48.628;9.058;2023-04-24T07:15:36;3.00;;;1.70;;
7410;SDS011;3747;48.628;9.058;2023-04-24T07:18:03;1.67;;;1.30;;
7410;SDS011;3747;48.628;9.058;2023-04-24T07:23:01;2.40;;;1.30;;
7410;SDS011;3747;48.628;9.058;2023-04-24T07:25:28;1.83;;;1.73;;
7410;SDS011;3747;48.628;9.058;2023-04-24T07:27:56;1.50;;;1.40;;
7410;SDS011;3747;48.628;9.058;2023-04-24T07:30:23;1.40;;;1.30;;
7410;SDS011;3747;48.628;9.058;2023-04-24T07:32:49;2.10;;;1.53;;
7410;SDS011;3747;48.628;9.058;2023-04-24T07:35:16;1.40;;;1.30;;
7410;SDS011;3747;48.628;9.058;2023-04-24T07:37:43;2.80;;;1.63;;
7410;SDS011;3747;48.628;9.058;2023-04-24T07:40:24;0.80;;;0.80;;
7410;SDS011;3747;48.628;9.058;2023-04-24T07:42:51;4.67;;;1.63;;
7410;SDS011;3747;48.628;9.058;2023-04-24T07:45:17;1.13;;;1.10;;
7410;SDS011;3747;48.628;9.058;2023-04-24T07:47:50;1.00;;;1.00;;
7410;SDS011;3747;48.628;9.058;2023-04-24T07:50:17;2.50;;;1.03;;
7410;SDS011;3747;48.628;9.058;2023-04-24T07:52:45;0.87;;;0.87;;
7410;SDS011;3747;48.628;9.058;2023-04-24T07:55:12;0.87;;;0.87;;
7410;SDS011;3747;48.628;9.058;2023-04-24T07:57:40;1.00;;;1.00;;
7410;SDS011;3747;48.628;9.058;2023-04-24T08:00:07;1.30;;;1.17;;
7410;SDS011;3747;48.628;9.058;2023-04-24T08:02:35;0.93;;;0.93;;
7410;SDS011;3747;48.628;9.058;2023-04-24T08:05:02;0.90;;;0.90;;
7410;SDS011;3747;48.628;9.058;2023-04-24T08:07:30;1.30;;;1.20;;
7410;SDS011;3747;48.628;9.058;2023-04-24T08:09:57;1.30;;;1.20;;
7410;SDS011;3747;48.628;9.058;2023-04-24T08:12:25;1.10;;;1.00;;
7410;SDS011;3747;48.628;9.058;2023-04-24T08:14:53;3.03;;;1.20;;
7410;SDS011;3747;48.628;9.058;2023-04-24T08:17:20;1.53;;;1.43;;
7410;SDS011;3747;48.628;9.058;2023-04-24T08:19:46;1.87;;;1.30;;
7410;SDS011;3747;48.628;9.058;2023-04-24T08:22:13;1.13;;;1.10;;
7410;SDS011;3747;48.628;9.058;2023-04-24T08:24:45;1.50;;;1.07;;
7410;SDS011;3747;48.628;9.058;2023-04-24T08:27:12;1.40;;;1.30;;
7410;SDS011;3747;48.628;9.058;2023-04-24T08:29:39;2.90;;;1.10;;
7410;SDS011;3747;48.628;9.058;2023-04-24T08:32:07;1.67;;;1.10;;
7410;SDS011;3747;48.628;9.058;2023-04-24T08:34:33;1.70;;;1.30;;
7410;SDS011;3747;48.628;9.058;2023-04-24T08:37:00;2.20;;;1.03;;
7410;SDS011;3747;48.628;9.058;2023-04-24T08:39:27;1.57;;;0.80;;
7410;SDS011;3747;48.628;9.058;2023-04-24T08:41:54;2.00;;;1.00;;
7410;SDS011;3747;48.628;9.058;2023-04-24T08:44:21;2.70;;;1.03;;
7410;SDS011;3747;48.628;9.058;2023-04-24T08:46:48;0.80;;;0.80;;
7410;SDS011;3747;48.628;9.058;2023-04-24T08:49:17;2.40;;;1.30;;
7410;SDS011;3747;48.628;9.058;2023-04-24T08:51:45;2.53;;;0.83;;
7410;SDS011;3747;48.628;9.058;2023-04-24T08:54:13;1.00;;;0.70;;
7410;SDS011;3747;48.628;9.058;2023-04-24T08:56:40;1.47;;;0.83;;
7410;SDS011;3747;48.628;9.058;2023-04-24T08:59:09;1.77;;;1.30;;
7410;SDS011;3747;48.628;9.058;2023-04-24T09:01:37;2.73;;;1.20;;
7410;SDS011;3747;48.628;9.058;2023-04-24T09:04:05;2.53;;;0.90;;
7410;SDS011;3747;48.628;9.058;2023-04-24T09:06:36;1.60;;;1.50;;
7410;SDS011;3747;48.628;9.058;2023-04-24T09:09:03;2.43;;;1.30;;
7410;SDS011;3747;48.628;9.058;2023-04-24T09:11:30;1.23;;;0.80;;
7410;SDS011;3747;48.628;9.058;2023-04-24T09:13:57;2.60;;;1.30;;
7410;SDS011;3747;48.628;9.058;2023-04-24T09:16:25;1.20;;;1.10;;
7410;SDS011;3747;48.628;9.058;2023-04-24T09:18:52;1.10;;;1.00;;
7410;SDS011;3747;48.628;9.058;2023-04-24T09:21:20;1.30;;;1.03;;
7410;SDS011;3747;48.628;9.058;2023-04-24T09:23:58;1.13;;;0.87;;
7410;SDS011;3747;48.628;9.058;2023-04-24T09:26:26;1.47;;;1.00;;
7410;SDS011;3747;48.628;9.058;2023-04-24T09:28:57;1.20;;;1.10;;
7410;SDS011;3747;48.628;9.058;2023-04-24T09:31:25;0.70;;;0.70;;
7410;SDS011;3747;48.628;9.058;2023-04-24T09:33:54;1.67;;;0.83;;
7410;SDS011;3747;48.628;9.058;2023-04-24T09:36:26;0.93;;;0.70;;
7410;SDS011;3747;48.628;9.058;2023-04-24T09:38:53;1.27;;;0.80;;
7410;SDS011;3747;48.628;9.058;2023-04-24T09:41:25;2.93;;;0.60;;
7410;SDS011;3747;48.628;9.058;2023-04-24T09:43:53;0.70;;;0.70;;
7410;SDS011;3747;48.628;9.058;2023-04-24T09:46:20;1.40;;;0.97;;
7410;SDS011;3747;48.628;9.058;2023-04-24T09:48:47;1.00;;;0.90;;
7410;SDS011;3747;48.628;9.058;2023-04-24T09:51:14;1.73;;;0.80;;
7410;SDS011;3747;48.628;9.058;2023-04-24T09:53:44;1.17;;;0.80;;
7410;SDS011;3747;48.628;9.058;2023-04-24T09:56:13;1.40;;;1.30;;
7410;SDS011;3747;48.628;9.058;2023-04-24T09:58:40;0.50;;;0.50;;
7410;SDS011;3747;48.628;9.058;2023-04-24T10:01:06;0.50;;;0.50;;
7410;SDS011;3747;48.628;9.058;2023-04-24T10:03:35;0.77;;;0.70;;
7410;SDS011;3747;48.628;9.058;2023-04-24T10:06:03;1.53;;;0.70;;
7410;SDS011;3747;48.628;9.058;2023-04-24T10:08:33;1.07;;;0.50;;
7410;SDS011;3747;48.628;9.058;2023-04-24T10:11:01;1.53;;;0.80;;
7410;SDS011;3747;48.628;9.058;2023-04-24T10:13:29;0.60;;;0.60;;
7410;SDS011;3747;48.628;9.058;2023-04-24T10:15:58;1.07;;;0.80;;
7410;SDS011;3747;48.628;9.058;2023-04-24T10:18:26;1.13;;;0.57;;
7410;SDS011;3747;48.628;9.058;2023-04-24T10:20:53;0.80;;;0.80;;
7410;SDS011;3747;48.628;9.058;2023-04-24T10:23:21;0.90;;;0.70;;
7410;SDS011;3747;48.628;9.058;2023-04-24T10:25:48;0.77;;;0.77;;
7410;SDS011;3747;48.628;9.058;2023-04-24T10:28:16;0.63;;;0.57;;
7410;SDS011;3747;48.628;9.058;2023-04-24T10:30:46;1.30;;;1.20;;
7410;SDS011;3747;48.628;9.058;2023-04-24T10:33:14;0.93;;;0.80;;
7410;SDS011;3747;48.628;9.058;2023-04-24T10:35:44;1.07;;;0.77;;
7410;SDS011;3747;48.628;9.058;2023-04-24T10:38:14;1.93;;;0.53;;
7410;SDS011;3747;48.628;9.058;2023-04-24T10:40:44;2.33;;;0.90;;
7410;SDS011;3747;48.628;9.058;2023-04-24T10:43:11;0.70;;;0.70;;
7410;SDS011;3747;48.628;9.058;2023-04-24T10:45:45;0.97;;;0.70;;
7410;SDS011;3747;48.628;9.058;2023-04-24T10:48:27;1.93;;;0.90;;
7410;SDS011;3747;48.628;9.058;2023-04-24T10:50:53;4.37;;;0.90;;
7410;SDS011;3747;48.628;9.058;2023-04-24T10:53:30;1.40;;;0.50;;
7410;SDS011;3747;48.628;9.058;2023-04-24T10:55:57;0.53;;;0.53;;
7410;SDS011;3747;48.628;9.058;2023-04-24T10:58:35;0.60;;;0.60;;
7410;SDS011;3747;48.628;9.058;2023-04-24T11:01:06;0.63;;;0.63;;
7410;SDS011;3747;48.628;9.058;2023-04-24T11:03:33;2.03;;;1.13;;
7410;SDS011;3747;48.628;9.058;2023-04-24T11:06:02;1.00;;;0.90;;
7410;SDS011;3747;48.628;9.058;2023-04-24T11:08:30;1.23;;;0.70;;
7410;SDS011;3747;48.628;9.058;2023-04-24T11:10:59;1.20;;;0.90;;
7410;SDS011;3747;48.628;9.058;2023-04-24T11:13:31;0.93;;;0.70;;
7410;SDS011;3747;48.628;9.058;2023-04-24T11:16:29;0.70;;;0.70;;
7410;SDS011;3747;48.628;9.058;2023-04-24T11:19:02;0.70;;;0.70;;
7410;SDS011;3747;48.628;9.058;2023-04-24T11:21:40;0.70;;;0.70;;
7410;SDS011;3747;48.628;9.058;2023-04-24T11:27:00;1.63;;;0.83;;
7410;SDS011;3747;48.628;9.058;2023-04-24T11:32:29;0.93;;;0.67;;
7410;SDS011;3747;48.628;9.058;2023-04-24T11:35:03;0.50;;;0.50;;
7410;SDS011;3747;48.628;9.058;2023-04-24T11:37:35;0.60;;;0.40;;
7410;SDS011;3747;48.628;9.058;2023-04-24T11:40:03;0.47;;;0.40;;
7410;SDS011;3747;48.628;9.058;2023-04-24T11:42:33;0.57;;;0.50;;
7410;SDS011;3747;48.628;9.058;2023-04-24T11:45:02;0.80;;;0.80;;
7410;SDS011;3747;48.628;9.058;2023-04-24T11:47:34;0.60;;;0.60;;
7410;SDS011;3747;48.628;9.058;2023-04-24T11:50:01;0.70;;;0.70;;
7410;SDS011;3747;48.628;9.058;2023-04-24T11:52:29;3.13;;;0.73;;
7410;SDS011;3747;48.628;9.058;2023-04-24T11:54:57;1.70;;;1.00;;
7410;SDS011;3747;48.628;9.058;2023-04-24T11:57:25;0.80;;;0.80;;
7410;SDS011;3747;48.628;9.058;2023-04-24T11:59:55;1.10;;;0.80;;
7410;SDS011;3747;48.628;9.058;2023-04-24T12:02:29;0.87;;;0.87;;
7410;SDS011;3747;48.628;9.058;2023-04-24T12:07:51;2.73;;;1.03;;
7410;SDS011;3747;48.628;9.058;2023-04-24T12:10:25;1.00;;;0.90;;
7410;SDS011;3747;48.628;9.058;2023-04-24T12:12:54;0.87;;;0.87;;
7410;SDS011;3747;48.628;9.058;2023-04-24T12:15:22;1.07;;;1.00;;
7410;SDS011;3747;48.628;9.058;2023-04-24T12:17:51;1.27;;;0.90;;
7410;SDS011;3747;48.628;9.058;2023-04-24T12:20:23;1.60;;;1.00;;
7410;SDS011;3747;48.628;9.058;2023-04-24T12:22:53;2.33;;;0.83;;
7410;SDS011;3747;48.628;9.058;2023-04-24T12:25:21;1.17;;;0.63;;
7410;SDS011;3747;48.628;9.058;2023-04-24T12:27:52;1.00;;;0.90;;
7410;SDS011;3747;48.628;9.058;2023-04-24T12:30:19;1.50;;;1.10;;
7410;SDS011;3747;48.628;9.058;2023-04-24T12:32:48;1.90;;;1.10;;
7410;SDS011;3747;48.628;9.058;2023-04-24T12:35:20;1.37;;;0.90;;
7410;SDS011;3747;48.628;9.058;2023-04-24T12:37:47;0.93;;;0.90;;
7410;SDS011;3747;48.628;9.058;2023-04-24T12:40:14;1.33;;;0.73;;
7410;SDS011;3747;48.628;9.058;2023-04-24T12:42:42;1.07;;;0.97;;
7410;SDS011;3747;48.628;9.058;2023-04-24T12:45:09;1.37;;;0.87;;
7410;SDS011;3747;48.628;9.058;2023-04-24T12:47:37;1.73;;;0.90;;
7410;SDS011;3747;48.628;9.058;2023-04-24T12:50:04;0.70;;;0.70;;
7410;SDS011;3747;48.628;9.058;2023-04-24T12:52:33;0.70;;;0.70;;
7410;SDS011;3747;48.628;9.058;2023-04-24T12:55:00;1.90;;;0.60;;
7410;SDS011;3747;48.628;9.058;2023-04-24T12:57:28;0.80;;;0.80;;
7410;SDS011;3747;48.628;9.058;2023-04-24T12:59:56;0.80;;;0.80;;
7410;SDS011;3747;48.628;9.058;2023-04-24T13:02:23;0.63;;;0.63;;
7410;SDS011;3747;48.628;9.058;2023-04-24T13:04:51;1.37;;;0.77;;
7410;SDS011;3747;48.628;9.058;2023-04-24T13:07:18;1.43;;;0.80;;
7410;SDS011;3747;48.628;9.058;2023-04-24T13:09:47;1.90;;;1.00;;
7410;SDS011;3747;48.628;9.058;2023-04-24T13:12:14;0.90;;;0.90;;
7410;SDS011;3747;48.628;9.058;2023-04-24T13:14:41;1.73;;;1.20;;
7410;SDS011;3747;48.628;9.058;2023-04-24T13:17:08;1.33;;;1.17;;
7410;SDS011;3747;48.628;9.058;2023-04-24T13:19:37;1.20;;;1.20;;
7410;SDS011;3747;48.628;9.058;2023-04-24T13:22:04;1.50;;;1.23;;
7410;SDS011;3747;48.628;9.058;2023-04-24T13:24:31;2.70;;;1.40;;
7410;SDS011;3747;48.628;9.058;2023-04-24T13:26:59;2.10;;;1.17;;
7410;SDS011;3747;48.628;9.058;2023-04-24T13:29:27;3.10;;;1.30;;
7410;SDS011;3747;48.628;9.058;2023-04-24T13:31:54;3.20;;;1.13;;
7410;SDS011;3747;48.628;9.058;2023-04-24T13:34:21;1.30;;;1.20;;
7410;SDS011;3747;48.628;9.058;2023-04-24T13:36:49;1.27;;;1.20;;
7410;SDS011;3747;48.628;9.058;2023-04-24T13:39:16;0.90;;;0.90;;
7410;SDS011;3747;48.628;9.058;2023-04-24T13:41:42;3.10;;;2.23;;
7410;SDS011;3747;48.628;9.058;2023-04-24T13:44:11;2.93;;;1.50;;
7410;SDS011;3747;48.628;9.058;2023-04-24T13:46:38;1.43;;;1.33;;
7410;SDS011;3747;48.628;9.058;2023-04-24T13:49:06;2.63;;;1.40;;
7410;SDS011;3747;48.628;9.058;2023-04-24T13:51:33;1.47;;;1.37;;
7410;SDS011;3747;48.628;9.058;2023-04-24T13:53:59;4.50;;;1.37;;
7410;SDS011;3747;48.628;9.058;2023-04-24T13:56:26;2.47;;;0.97;;
7410;SDS011;3747;48.628;9.058;2023-04-24T13:58:53;1.40;;;1.30;;
7410;SDS011;3747;48.628;9.058;2023-04-24T14:01:21;1.40;;;1.30;;
7410;SDS011;3747;48.628;9.058;2023-04-24T14:03:49;1.40;;;1.30;;
7410;SDS011;3747;48.628;9.058;2023-04-24T14:06:17;2.57;;;1.50;;
7410;SDS011;3747;48.628;9.058;2023-04-24T14:08:43;1.20;;;1.10;;
7410;SDS011;3747;48.628;9.058;2023-04-24T14:11:10;1.23;;;1.13;;
7410;SDS011;3747;48.628;9.058;2023-04-24T14:13:37;3.13;;;1.63;;
7410;SDS011;3747;48.628;9.058;2023-04-24T14:16:04;2.73;;;1.70;;
7410;SDS011;3747;48.628;9.058;2023-04-24T14:18:33;1.40;;;1.30;;
7410;SDS011;3747;48.628;9.058;2023-04-24T14:21:01;2.47;;;1.50;;
7410;SDS011;3747;48.628;9.058;2023-04-24T14:23:27;2.70;;;1.30;;
7410;SDS011;3747;48.628;9.058;2023-04-24T14:25:54;4.00;;;1.50;;
7410;SDS011;3747;48.628;9.058;2023-04-24T14:28:21;1.83;;;1.30;;
7410;SDS011;3747;48.628;9.058;2023-04-24T14:30:48;2.30;;;1.10;;
7410;SDS011;3747;48.628;9.058;2023-04-24T14:33:15;1.60;;;1.50;;
7410;SDS011;3747;48.628;9.058;2023-04-24T14:35:43;1.90;;;1.50;;
7410;SDS011;3747;48.628;9.058;2023-04-24T14:38:14;1.33;;;1.23;;
7410;SDS011;3747;48.628;9.058;2023-04-24T14:40:41;2.00;;;1.40;;
7410;SDS011;3747;48.628;9.058;2023-04-24T14:43:08;1.50;;;1.40;;
7410;SDS011;3747;48.628;9.058;2023-04-24T14:45:34;1.17;;;1.07;;
7410;SDS011;3747;48.628;9.058;2023-04-24T14:48:03;1.27;;;1.17;;
7410;SDS011;3747;48.628;9.058;2023-04-24T14:50:30;1.10;;;1.00;;
7410;SDS011;3747;48.628;9.058;2023-04-24T14:52:58;1.60;;;1.10;;
7410;SDS011;3747;48.628;9.058;2023-04-24T14:55:26;1.67;;;1.10;;
7410;SDS011;3747;48.628;9.058;2023-04-24T14:57:53;1.47;;;1.13;;
7410;SDS011;3747;48.628;9.058;2023-04-24T15:00:21;1.20;;;1.07;;
7410;SDS011;3747;48.628;9.058;2023-04-24T15:02:48;1.63;;;1.10;;
7410;SDS011;3747;48.628;9.058;2023-04-24T15:05:15;1.30;;;1.07;;
7410;SDS011;3747;48.628;9.058;2023-04-24T15:07:41;1.23;;;1.13;;
7410;SDS011;3747;48.628;9.058;2023-04-24T15:10:10;1.77;;;1.40;;
7410;SDS011;3747;48.628;9.058;2023-04-24T15:12:37;2.00;;;1.10;;
7410;SDS011;3747;48.628;9.058;2023-04-24T15:15:04;1.00;;;1.00;;
7410;SDS011;3747;48.628;9.058;2023-04-24T15:17:33;1.33;;;1.23;;
7410;SDS011;3747;48.628;9.058;2023-04-24T15:20:00;1.30;;;1.20;;
7410;SDS011;3747;48.628;9.058;2023-04-24T15:22:28;2.57;;;1.50;;
7410;SDS011;3747;48.628;9.058;2023-04-24T15:24:55;1.47;;;1.10;;
7410;SDS011;3747;48.628;9.058;2023-04-24T15:27:25;2.43;;;1.03;;
7410;SDS011;3747;48.628;9.058;2023-04-24T15:29:52;2.43;;;1.30;;